createdAt,value
2023-04-18T00:00:18.727Z,99571.25
2023-04-18T00:01:20.273Z,99557.63
2023-04-18T00:02:21.926Z,99565.16
2023-04-18T00:03:23.724Z,99556.56
2023-04-18T00:04:25.686Z,99558.47
2023-04-18T00:05:27.361Z,99556.78
2023-04-18T00:06:28.914Z,99556.19
2023-04-18T00:07:30.477Z,99562.41
2023-04-18T00:08:35.592Z,99558.13
2023-04-18T00:09:37.232Z,99557.88
2023-04-18T00:10:38.990Z,99550.00
2023-04-18T00:11:40.528Z,99560.59
2023-04-18T00:12:42.188Z,99562.63
2023-04-18T00:13:43.750Z,99560.25
2023-04-18T00:14:45.280Z,99562.28
2023-04-18T00:15:46.843Z,99557.97
2023-04-18T00:16:48.471Z,99552.63
2023-04-18T00:17:50.114Z,99556.81
2023-04-18T00:18:52.122Z,99554.28
2023-04-18T00:19:54.515Z,99567.31
2023-04-18T00:20:56.339Z,99559.78
2023-04-18T00:21:57.886Z,99563.00
2023-04-18T00:22:59.477Z,99559.06
2023-04-18T00:24:01.038Z,99554.53
2023-04-18T00:25:02.575Z,99560.38
2023-04-18T00:26:04.167Z,99556.81
2023-04-18T00:27:05.756Z,99560.88
2023-04-18T00:28:07.384Z,99558.59
2023-04-18T00:29:08.947Z,99558.34
2023-04-18T00:30:11.037Z,99558.47
2023-04-18T00:31:12.626Z,99557.03
2023-04-18T00:32:14.568Z,99562.53
2023-04-18T00:33:16.241Z,99558.13
2023-04-18T00:34:18.554Z,99554.16
2023-04-18T00:35:20.301Z,99557.63
2023-04-18T00:36:21.901Z,99560.25
2023-04-18T00:37:23.480Z,99561.91
2023-04-18T00:38:25.025Z,99556.56
2023-04-18T00:39:26.616Z,99561.81
2023-04-18T00:40:28.603Z,99567.88
2023-04-18T00:41:30.799Z,99556.31
2023-04-18T00:42:33.181Z,99554.75
2023-04-18T00:43:34.767Z,99555.22
2023-04-18T00:44:36.346Z,99551.41
2023-04-18T00:45:37.901Z,99553.31
2023-04-18T00:46:39.474Z,99555.00
2023-04-18T00:47:41.195Z,99559.19
2023-04-18T00:48:43.115Z,99563.22
2023-04-18T00:49:45.526Z,99560.59
2023-04-18T00:50:47.167Z,99552.00
2023-04-18T00:51:49.381Z,99548.56
2023-04-18T00:52:51.163Z,99554.03
2023-04-18T00:53:53.838Z,99552.59
2023-04-18T00:54:55.633Z,99557.16
2023-04-18T00:55:57.504Z,99552.59
2023-04-18T00:56:59.703Z,99538.75
2023-04-18T00:58:01.530Z,99547.34
2023-04-18T00:59:03.381Z,99545.31
2023-04-18T01:00:07.064Z,99552.00
2023-04-18T01:01:09.625Z,99541.97
2023-04-18T01:02:11.618Z,99544.72
2023-04-18T01:03:14.826Z,99542.81
2023-04-18T01:04:17.261Z,99549.09
2023-04-18T01:05:19.148Z,99542.94
2023-04-18T01:06:20.887Z,99544.59
2023-04-18T01:07:22.550Z,99549.63
2023-04-18T01:08:24.552Z,99546.28
2023-04-18T01:09:26.422Z,99546.63
2023-04-18T01:10:28.875Z,99551.53
2023-04-18T01:11:30.446Z,99541.63
2023-04-18T01:12:32.044Z,99544.13
2023-04-18T01:13:34.027Z,99542.94
2023-04-18T01:14:41.765Z,99541.03
2023-04-18T01:15:45.069Z,99555.69
2023-04-18T01:16:46.992Z,99541.03
2023-04-18T01:17:48.589Z,99545.19
2023-04-18T01:18:50.145Z,99544.25
2023-04-18T01:19:51.678Z,99548.56
2023-04-18T01:20:54.146Z,99545.06
2023-04-18T01:21:55.755Z,99547.59
2023-04-18T01:22:58.419Z,99549.97
2023-04-18T01:24:29.680Z,99549.97
2023-04-18T01:25:31.378Z,99546.13
2023-04-18T01:26:32.950Z,99538.16
2023-04-18T01:27:34.481Z,99535.78
2023-04-18T01:28:36.971Z,99544.25
2023-04-18T01:29:39.093Z,99547.81
2023-04-18T01:30:41.124Z,99543.41
2023-04-18T01:31:42.742Z,99541.63
2023-04-18T01:32:44.624Z,99545.31
2023-04-18T01:33:46.659Z,99537.19
2023-04-18T01:34:50.730Z,99543.78
2023-04-18T01:35:52.357Z,99538.53
2023-04-18T01:36:53.897Z,99538.63
2023-04-18T01:37:55.578Z,99537.91
2023-04-18T01:38:57.540Z,99546.16
2023-04-18T01:39:59.147Z,99539.38
2023-04-18T01:41:00.685Z,99544.97
2023-04-18T01:42:02.278Z,99540.78
2023-04-18T01:43:03.914Z,99533.75
2023-04-18T01:44:05.498Z,99543.16
2023-04-18T01:45:08.176Z,99539.59
2023-04-18T01:46:09.812Z,99539.72
2023-04-18T01:47:11.403Z,99536.13
2023-04-18T01:48:12.976Z,99537.09
2023-04-18T01:49:16.641Z,99536.38
2023-04-18T01:50:18.237Z,99531.94
2023-04-18T01:51:19.968Z,99529.44
2023-04-18T01:52:21.569Z,99533.00
2023-04-18T01:53:25.035Z,99534.91
2023-04-18T01:54:26.558Z,99538.50
2023-04-18T01:55:28.102Z,99540.53
2023-04-18T01:56:29.662Z,99538.59
2023-04-18T01:57:34.235Z,99533.50
2023-04-18T01:58:36.444Z,99535.28
2023-04-18T01:59:38.026Z,99538.03
2023-04-18T02:00:39.654Z,99532.78
2023-04-18T02:01:41.227Z,99532.66
2023-04-18T02:02:43.085Z,99536.59
2023-04-18T02:03:44.896Z,99538.75
2023-04-18T02:04:47.704Z,99538.50
2023-04-18T02:05:49.283Z,99542.94
2023-04-18T02:06:50.840Z,99537.91
2023-04-18T02:07:52.712Z,99537.19
2023-04-18T02:08:54.262Z,99536.38
2023-04-18T02:09:55.785Z,99532.28
2023-04-18T02:10:57.391Z,99536.13
2023-04-18T02:12:01.351Z,99541.97
2023-04-18T02:13:03.188Z,99536.84
2023-04-18T02:14:04.989Z,99535.16
2023-04-18T02:15:07.055Z,99539.56
2023-04-18T02:16:13.578Z,99531.13
2023-04-18T02:17:18.355Z,99531.81
2023-04-18T02:18:19.943Z,99542.44
2023-04-18T02:19:21.528Z,99530.88
2023-04-18T02:20:23.138Z,99528.97
2023-04-18T02:21:24.727Z,99536.22
2023-04-18T02:22:27.034Z,99539.47
2023-04-18T02:23:28.602Z,99530.63
2023-04-18T02:24:30.387Z,99535.16
2023-04-18T02:25:31.941Z,99525.38
2023-04-18T02:26:33.524Z,99523.81
2023-04-18T02:27:35.083Z,99527.38
2023-04-18T02:28:36.642Z,99529.19
2023-04-18T02:29:38.202Z,99522.28
2023-04-18T02:30:39.749Z,99529.91
2023-04-18T02:31:41.917Z,99526.78
2023-04-18T02:32:43.569Z,99532.88
2023-04-18T02:33:46.791Z,99522.72
2023-04-18T02:34:48.392Z,99535.41
2023-04-18T02:35:51.281Z,99530.88
2023-04-18T02:36:52.839Z,99541.13
2023-04-18T02:37:54.446Z,99525.63
2023-04-18T02:38:55.965Z,99535.16
2023-04-18T02:39:57.515Z,99530.25
2023-04-18T02:40:59.096Z,99536.22
2023-04-18T02:42:01.928Z,99543.16
2023-04-18T02:43:03.582Z,99531.22
2023-04-18T02:44:06.172Z,99543.16
2023-04-18T02:45:11.234Z,99544.44
2023-04-18T02:46:12.889Z,99542.31
2023-04-18T02:47:14.698Z,99546.47
2023-04-18T02:48:19.213Z,99547.09
2023-04-18T02:49:20.781Z,99552.13
2023-04-18T02:50:22.849Z,99547.94
2023-04-18T02:51:25.032Z,99555.69
2023-04-18T02:52:28.176Z,99547.34
2023-04-18T02:53:29.817Z,99551.28
2023-04-18T02:54:31.381Z,99546.88
2023-04-18T02:55:39.094Z,99547.47
2023-04-18T02:56:40.693Z,99546.88
2023-04-18T02:57:58.764Z,99550.44
2023-04-18T02:59:06.991Z,99548.75
2023-04-18T03:00:22.494Z,99549.84
2023-04-18T03:01:49.514Z,99552.97
2023-04-18T03:02:53.805Z,99557.59
2023-04-18T03:04:15.842Z,99549.25
2023-04-18T03:05:22.142Z,99554.28
2023-04-18T03:06:25.775Z,99550.94
2023-04-18T03:07:27.870Z,99558.56
2023-04-18T03:08:29.441Z,99559.28
2023-04-18T03:09:31.157Z,99550.09
2023-04-18T03:10:38.994Z,99551.19
2023-04-18T03:11:40.667Z,99552.72
2023-04-18T03:12:42.482Z,99554.38
2023-04-18T03:13:45.290Z,99556.66
2023-04-18T03:14:47.314Z,99555.00
2023-04-18T03:15:49.428Z,99555.94
2023-04-18T03:16:53.076Z,99555.34
2023-04-18T03:17:59.902Z,99560.72
2023-04-18T03:19:05.285Z,99560.94
2023-04-18T03:20:07.989Z,99559.28
2023-04-18T03:21:09.569Z,99560.13
2023-04-18T03:22:11.653Z,99556.16
2023-04-18T03:23:20.551Z,99560.00
2023-04-18T03:24:22.131Z,99554.75
2023-04-18T03:25:26.439Z,99558.44
2023-04-18T03:26:28.789Z,99560.84
2023-04-18T03:27:31.423Z,99560.59
2023-04-18T03:28:33.112Z,99555.22
2023-04-18T03:29:35.140Z,99552.59
2023-04-18T03:30:36.692Z,99559.41
2023-04-18T03:31:39.934Z,99563.22
2023-04-18T03:32:41.667Z,99554.75
2023-04-18T03:33:43.296Z,99557.97
2023-04-18T03:34:45.430Z,99558.44
2023-04-18T03:35:47.043Z,99554.16
2023-04-18T03:36:48.798Z,99558.22
2023-04-18T03:37:51.574Z,99561.91
2023-04-18T03:39:02.888Z,99555.31
2023-04-18T03:40:04.914Z,99551.97
2023-04-18T03:41:06.736Z,99559.63
2023-04-18T03:42:11.145Z,99558.69
2023-04-18T03:43:13.502Z,99549.84
2023-04-18T03:44:16.075Z,99559.06
2023-04-18T03:45:17.797Z,99560.84
2023-04-18T03:46:21.341Z,99567.75
2023-04-18T03:47:25.784Z,99562.63
2023-04-18T03:48:31.059Z,99561.06
2023-04-18T03:49:36.133Z,99563.69
2023-04-18T03:50:38.467Z,99564.53
2023-04-18T03:51:47.021Z,99562.41
2023-04-18T03:52:48.600Z,99565.97
2023-04-18T03:53:52.044Z,99563.34
2023-04-18T03:54:53.666Z,99568.72
2023-04-18T03:55:59.518Z,99567.03
2023-04-18T03:57:15.542Z,99569.56
2023-04-18T03:58:17.149Z,99579.09
2023-04-18T03:59:19.604Z,99580.66
2023-04-18T04:00:24.179Z,99573.13
2023-04-18T04:01:33.472Z,99575.03
2023-04-18T04:02:35.191Z,99572.75
2023-04-18T04:03:37.264Z,99575.03
2023-04-18T04:04:40.310Z,99577.66
2023-04-18T04:05:42.097Z,99576.69
2023-04-18T04:06:43.707Z,99574.06
2023-04-18T04:07:45.336Z,99575.88
2023-04-18T04:08:47.428Z,99576.84
2023-04-18T04:09:52.774Z,99583.66
2023-04-18T04:10:54.434Z,99583.66
2023-04-18T04:11:56.812Z,99575.88
2023-04-18T04:12:58.798Z,99581.94
2023-04-18T04:14:01.054Z,99586.38
2023-04-18T04:15:12.853Z,99582.19
2023-04-18T04:16:21.393Z,99584.09
2023-04-18T04:17:25.413Z,99586.72
2023-04-18T04:18:27.774Z,99583.03
2023-04-18T04:19:30.599Z,99573.59
2023-04-18T04:20:53.182Z,99578.50
2023-04-18T04:22:06.399Z,99582.44
2023-04-18T04:23:08.110Z,99583.25
2023-04-18T04:24:11.519Z,99584.81
2023-04-18T04:25:17.375Z,99593.75
2023-04-18T04:26:18.965Z,99589.59
2023-04-18T04:27:30.824Z,99592.56
2023-04-18T04:28:32.461Z,99593.38
2023-04-18T04:29:37.285Z,99591.25
2023-04-18T04:30:38.870Z,99593.16
2023-04-18T04:31:40.607Z,99583.72
2023-04-18T04:32:42.622Z,99588.97
2023-04-18T04:33:45.192Z,99595.91
2023-04-18T04:34:51.577Z,99594.94
2023-04-18T04:35:54.369Z,99596.94
2023-04-18T04:36:56.055Z,99600.53
2023-04-18T04:37:59.117Z,99601.50
2023-04-18T04:39:07.119Z,99601.25
2023-04-18T04:40:23.850Z,99597.31
2023-04-18T04:41:39.806Z,99599.38
2023-04-18T04:42:41.893Z,99591.97
2023-04-18T04:43:50.031Z,99591.13
2023-04-18T04:44:54.598Z,99598.91
2023-04-18T04:45:57.385Z,99591.34
2023-04-18T04:46:58.954Z,99597.31
2023-04-18T04:48:06.561Z,99595.44
2023-04-18T04:49:08.122Z,99594.59
2023-04-18T04:50:10.201Z,99601.28
2023-04-18T04:51:11.916Z,99601.88
2023-04-18T04:52:13.543Z,99590.69
2023-04-18T04:53:15.155Z,99604.03
2023-04-18T04:54:17.062Z,99599.00
2023-04-18T04:55:18.814Z,99601.41
2023-04-18T04:56:20.444Z,99598.06
2023-04-18T04:57:22.187Z,99593.88
2023-04-18T04:58:23.834Z,99598.66
2023-04-18T04:59:48.008Z,99603.31
2023-04-18T05:00:49.638Z,99600.31
2023-04-18T05:01:51.288Z,99603.91
2023-04-18T05:02:55.234Z,99606.53
2023-04-18T05:03:57.908Z,99605.56
2023-04-18T05:04:59.533Z,99606.06
2023-04-18T05:06:01.188Z,99605.94
2023-04-18T05:07:02.950Z,99610.13
2023-04-18T05:08:04.984Z,99615.16
2023-04-18T05:09:06.567Z,99613.59
2023-04-18T05:10:08.416Z,99611.78
2023-04-18T05:11:09.983Z,99611.78
2023-04-18T05:12:11.587Z,99610.50
2023-04-18T05:13:13.196Z,99606.09
2023-04-18T05:14:15.128Z,99608.00
2023-04-18T05:15:18.746Z,99605.13
2023-04-18T05:16:20.742Z,99611.44
2023-04-18T05:17:22.724Z,99614.31
2023-04-18T05:18:24.508Z,99615.16
2023-04-18T05:19:26.077Z,99617.66
2023-04-18T05:20:27.655Z,99611.69
2023-04-18T05:21:29.373Z,99623.75
2023-04-18T05:22:31.016Z,99612.41
2023-04-18T05:23:33.410Z,99618.59
2023-04-18T05:24:35.143Z,99625.53
2023-04-18T05:25:36.861Z,99622.19
2023-04-18T05:26:38.519Z,99617.28
2023-04-18T05:27:40.549Z,99621.34
2023-04-18T05:28:42.505Z,99633.66
2023-04-18T05:29:44.125Z,99624.81
2023-04-18T05:30:45.948Z,99629.22
2023-04-18T05:31:47.563Z,99627.44
2023-04-18T05:32:49.203Z,99618.72
2023-04-18T05:33:50.794Z,99634.34
2023-04-18T05:34:52.342Z,99629.09
2023-04-18T05:35:54.404Z,99625.66
2023-04-18T05:36:56.602Z,99632.09
2023-04-18T05:37:58.785Z,99630.53
2023-04-18T05:39:00.397Z,99627.91
2023-04-18T05:40:01.956Z,99628.75
2023-04-18T05:41:03.510Z,99637.34
2023-04-18T05:42:05.139Z,99633.16
2023-04-18T05:43:06.812Z,99638.22
2023-04-18T05:44:08.571Z,99640.22
2023-04-18T05:45:10.523Z,99632.34
2023-04-18T05:46:12.138Z,99636.88
2023-04-18T05:47:13.728Z,99635.69
2023-04-18T05:48:15.280Z,99630.53
2023-04-18T05:49:16.831Z,99635.06
2023-04-18T05:50:18.392Z,99636.88
2023-04-18T05:51:19.966Z,99639.16
2023-04-18T05:52:21.761Z,99629.47
2023-04-18T05:53:23.499Z,99639.88
2023-04-18T05:54:25.180Z,99637.88
2023-04-18T05:55:26.743Z,99641.78
2023-04-18T05:56:28.377Z,99641.59
2023-04-18T05:57:29.956Z,99645.28
2023-04-18T05:58:31.552Z,99643.69
2023-04-18T05:59:33.138Z,99645.88
2023-04-18T06:00:35.088Z,99654.56
2023-04-18T06:01:36.599Z,99643.13
2023-04-18T06:02:38.312Z,99639.66
2023-04-18T06:03:40.819Z,99652.56
2023-04-18T06:04:43.016Z,99648.25
2023-04-18T06:05:44.848Z,99648.16
2023-04-18T06:06:46.446Z,99643.63
2023-04-18T06:07:47.993Z,99655.69
2023-04-18T06:08:49.557Z,99649.34
2023-04-18T06:09:51.198Z,99643.47
2023-04-18T06:10:52.773Z,99653.19
2023-04-18T06:11:54.344Z,99643.38
2023-04-18T06:12:55.886Z,99656.50
2023-04-18T06:13:57.409Z,99646.97
2023-04-18T06:14:58.986Z,99650.91
2023-04-18T06:16:00.778Z,99652.56
2023-04-18T06:17:03.037Z,99649.94
2023-04-18T06:18:04.929Z,99651.38
2023-04-18T06:19:06.597Z,99647.44
2023-04-18T06:20:09.484Z,99647.69
2023-04-18T06:21:11.094Z,99651.50
2023-04-18T06:22:12.661Z,99649.59
2023-04-18T06:23:14.209Z,99654.00
2023-04-18T06:24:16.266Z,99651.38
2023-04-18T06:25:18.121Z,99653.41
2023-04-18T06:26:19.695Z,99659.25
2023-04-18T06:27:30.487Z,99655.56
2023-04-18T06:28:33.377Z,99659.75
2023-04-18T06:29:36.037Z,99658.19
2023-04-18T06:30:38.357Z,99660.09
2023-04-18T06:31:39.941Z,99665.97
2023-04-18T06:32:41.597Z,99666.78
2023-04-18T06:33:43.144Z,99664.06
2023-04-18T06:34:44.743Z,99668.69
2023-04-18T06:35:46.491Z,99670.50
2023-04-18T06:42:11.397Z,99673.53
2023-04-18T06:54:12.231Z,99681.06
2023-04-18T06:55:13.978Z,99681.91
2023-04-18T06:56:15.593Z,99681.06
2023-04-18T06:57:17.224Z,99683.81
2023-04-18T06:58:18.786Z,99684.91
2023-04-18T06:59:20.614Z,99688.16
2023-04-18T07:00:22.200Z,99684.31
2023-04-18T07:01:23.787Z,99678.94
2023-04-18T07:02:25.459Z,99693.63
2023-04-18T07:03:27.157Z,99686.22
2023-04-18T07:04:28.893Z,99682.38
2023-04-18T07:05:30.473Z,99696.13
2023-04-18T07:06:32.747Z,99695.44
2023-04-18T07:07:34.927Z,99691.47
2023-04-18T07:08:36.690Z,99688.69
2023-04-18T07:09:40.307Z,99695.97
2023-04-18T07:10:42.586Z,99693.69
2023-04-18T07:11:44.268Z,99689.28
2023-04-18T07:12:45.831Z,99690.84
2023-04-18T07:13:47.401Z,99689.50
2023-04-18T07:14:49.050Z,99690.84
2023-04-18T07:15:50.604Z,99694.44
2023-04-18T07:16:52.299Z,99702.00
2023-04-18T07:17:54.008Z,99701.25
2023-04-18T07:18:55.602Z,99698.25
2023-04-18T07:19:57.171Z,99708.91
2023-04-18T07:20:58.700Z,99699.81
2023-04-18T07:22:00.666Z,99708.66
2023-04-18T07:23:02.222Z,99699.09
2023-04-18T07:24:03.777Z,99710.94
2023-04-18T07:25:05.560Z,99702.72
2023-04-18T07:26:07.240Z,99714.66
2023-04-18T07:27:08.797Z,99717.78
2023-04-18T07:28:10.390Z,99711.31
2023-04-18T07:29:11.919Z,99712.00
2023-04-18T07:30:13.655Z,99712.84
2023-04-18T07:31:15.349Z,99706.38
2023-04-18T07:32:16.931Z,99712.00
2023-04-18T07:33:18.498Z,99705.19
2023-04-18T07:34:20.113Z,99715.50
2023-04-18T07:35:21.857Z,99718.22
2023-04-18T07:36:23.608Z,99706.50
2023-04-18T07:37:25.311Z,99717.75
2023-04-18T07:38:27.511Z,99720.25
2023-04-18T07:39:29.041Z,99722.28
2023-04-18T07:40:30.630Z,99716.19
2023-04-18T07:41:33.033Z,99716.56
2023-04-18T07:42:34.776Z,99721.31
2023-04-18T07:43:36.676Z,99720.25
2023-04-18T07:45:48.862Z,99713.91
2023-04-18T07:48:47.014Z,99725.38
2023-04-18T07:53:45.262Z,99723.72
2023-04-18T07:54:47.157Z,99724.78
2023-04-18T07:55:49.883Z,99715.81
2023-04-18T07:56:51.443Z,99725.00
2023-04-18T08:04:54.239Z,99726.00
2023-04-18T08:07:18.525Z,99726.16
2023-04-18T08:14:04.458Z,99717.91
2023-04-18T08:30:11.976Z,99730.38
2023-04-18T08:34:25.373Z,99726.91
2023-04-18T08:36:51.280Z,99726.88
2023-04-18T08:38:02.621Z,99732.47
2023-04-18T08:39:06.086Z,99734.00
2023-04-18T08:40:08.913Z,99728.31
2023-04-18T09:00:42.985Z,99739.19
2023-04-18T09:01:55.818Z,99735.00
2023-04-18T09:02:57.685Z,99732.25
2023-04-18T09:03:59.715Z,99736.84
2023-04-18T09:05:20.013Z,99734.88
2023-04-18T09:27:12.041Z,99727.72
2023-04-18T09:28:33.440Z,99725.75
2023-04-18T09:29:46.479Z,99719.63
2023-04-18T09:30:53.387Z,99717.84
2023-04-18T09:33:07.564Z,99726.31
2023-04-18T09:34:20.848Z,99722.00
2023-04-18T09:35:25.578Z,99723.81
2023-04-18T09:36:27.690Z,99732.31
2023-04-18T09:38:47.727Z,99717.53
2023-04-18T09:39:49.375Z,99726.03
2023-04-18T09:41:07.763Z,99716.56
2023-04-18T09:42:09.866Z,99722.09
2023-04-18T09:44:28.501Z,99724.78
2023-04-18T09:46:53.261Z,99723.88
2023-04-18T09:49:41.297Z,99726.69
2023-04-18T09:50:44.234Z,99716.09
2023-04-18T09:51:46.082Z,99719.19
2023-04-18T09:52:48.640Z,99716.84
2023-04-18T09:53:50.502Z,99723.50
2023-04-18T09:54:56.271Z,99727.94
2023-04-18T09:55:58.353Z,99721.53
2023-04-18T09:57:02.579Z,99718.59
2023-04-18T09:58:05.105Z,99733.06
2023-04-18T09:59:08.535Z,99720.09
2023-04-18T10:00:14.911Z,99722.91
2023-04-18T10:01:16.614Z,99721.84
2023-04-18T10:02:23.032Z,99722.13
2023-04-18T10:03:30.096Z,99721.75
2023-04-18T10:04:32.845Z,99721.03
2023-04-18T10:05:36.268Z,99717.88
2023-04-18T10:06:38.566Z,99724.16
2023-04-18T10:07:40.901Z,99721.41
2023-04-18T10:08:48.940Z,99714.81
2023-04-18T10:11:20.596Z,99718.22
2023-04-18T10:12:22.600Z,99719.88
2023-04-18T10:13:25.608Z,99719.50
2023-04-18T10:14:28.481Z,99712.56
2023-04-18T10:16:41.810Z,99720.59
2023-04-18T10:18:02.700Z,99711.13
2023-04-18T10:19:30.846Z,99718.53
2023-04-18T10:20:34.162Z,99718.72
2023-04-18T10:21:35.773Z,99716.16
2023-04-18T10:22:37.414Z,99709.31
2023-04-18T10:23:39.834Z,99710.16
2023-04-18T10:24:48.740Z,99716.13
2023-04-18T10:25:50.944Z,99711.44
2023-04-18T10:26:52.566Z,99717.75
2023-04-18T10:27:56.095Z,99712.03
2023-04-18T10:28:58.711Z,99710.84
2023-04-18T10:30:00.359Z,99709.19
2023-04-18T10:31:03.378Z,99709.13
2023-04-18T10:32:07.875Z,99715.97
2023-04-18T10:34:29.158Z,99710.97
2023-04-18T10:35:34.099Z,99717.94
2023-04-18T10:36:35.676Z,99712.78
2023-04-18T10:37:52.466Z,99710.72
2023-04-18T10:39:00.509Z,99694.56
2023-04-18T10:40:02.588Z,99711.66
2023-04-18T10:41:13.028Z,99709.31
2023-04-18T10:42:14.644Z,99714.19
2023-04-18T10:43:16.242Z,99713.47
2023-04-18T10:44:22.052Z,99717.19
2023-04-18T10:45:25.203Z,99712.56
2023-04-18T10:46:32.412Z,99710.59
2023-04-18T10:47:34.602Z,99713.22
2023-04-18T10:48:38.578Z,99716.72
2023-04-18T10:49:53.910Z,99707.88
2023-04-18T10:51:19.292Z,99715.06
2023-04-18T10:52:20.934Z,99706.41
2023-04-18T10:53:22.825Z,99700.06
2023-04-18T10:54:49.059Z,99700.13
2023-04-18T10:55:54.958Z,99704.22
2023-04-18T10:57:00.914Z,99704.44
2023-04-18T10:58:03.606Z,99700.72
2023-04-18T10:59:05.673Z,99704.72
2023-04-18T11:00:08.892Z,99697.31
2023-04-18T11:01:14.428Z,99703.91
2023-04-18T11:02:26.517Z,99687.53
2023-04-18T11:03:33.937Z,99691.31
2023-04-18T11:04:35.806Z,99693.19
2023-04-18T11:05:37.468Z,99693.72
2023-04-18T11:06:53.420Z,99696.53
2023-04-18T11:07:55.556Z,99692.66
2023-04-18T11:09:13.320Z,99692.47
2023-04-18T11:10:23.388Z,99703.69
2023-04-18T11:11:25.091Z,99693.44
2023-04-18T11:13:35.612Z,99689.00
2023-04-18T11:14:45.038Z,99686.56
2023-04-18T11:15:46.576Z,99696.03
2023-04-18T11:16:48.154Z,99694.34
2023-04-18T11:18:03.703Z,99696.50
2023-04-18T11:19:21.654Z,99702.84
2023-04-18T11:20:23.593Z,99701.72
2023-04-18T11:21:28.092Z,99702.59
2023-04-18T11:22:30.784Z,99701.19
2023-04-18T11:23:32.414Z,99699.72
2023-04-18T11:24:34.013Z,99700.97
2023-04-18T11:25:35.558Z,99705.22
2023-04-18T11:26:38.293Z,99697.31
2023-04-18T11:28:41.627Z,99704.28
2023-04-18T11:29:43.195Z,99701.81
2023-04-18T11:30:44.791Z,99700.69
2023-04-18T11:31:56.605Z,99701.53
2023-04-18T11:32:59.324Z,99699.88
2023-04-18T11:34:02.008Z,99706.34
2023-04-18T11:35:03.777Z,99696.13
2023-04-18T11:36:06.253Z,99699.44
2023-04-18T11:37:07.802Z,99703.69
2023-04-18T11:38:12.432Z,99697.25
2023-04-18T11:39:14.041Z,99697.72
2023-04-18T11:40:16.001Z,99696.38
2023-04-18T11:41:17.750Z,99694.56
2023-04-18T11:47:24.073Z,99691.31
2023-04-18T11:52:07.031Z,99693.31
2023-04-18T11:53:08.634Z,99686.00
2023-04-18T11:54:42.719Z,99689.66
2023-04-18T11:55:55.069Z,99681.44
2023-04-18T11:56:56.686Z,99678.47
2023-04-18T11:57:59.852Z,99686.44
2023-04-18T11:59:08.824Z,99688.78
2023-04-18T12:00:10.976Z,99680.16
2023-04-18T12:01:17.970Z,99687.59
2023-04-18T12:02:21.602Z,99690.88
2023-04-18T12:03:23.682Z,99682.59
2023-04-18T12:04:25.673Z,99683.78
2023-04-18T12:05:31.132Z,99693.91
2023-04-18T12:06:53.403Z,99684.66
2023-04-18T12:07:55.322Z,99681.03
2023-04-18T12:08:59.771Z,99680.19
2023-04-18T12:10:01.963Z,99676.72
2023-04-18T12:11:03.605Z,99679.88
2023-04-18T12:12:05.272Z,99675.59
2023-04-18T12:13:08.244Z,99672.09
2023-04-18T12:14:23.330Z,99675.44
2023-04-18T12:16:46.359Z,99672.22
2023-04-18T12:17:50.715Z,99672.88
2023-04-18T12:18:59.004Z,99671.81
2023-04-18T12:20:05.205Z,99670.16
2023-04-18T12:21:06.807Z,99671.00
2023-04-18T12:22:08.426Z,99672.19
2023-04-18T12:23:10.025Z,99678.16
2023-04-18T12:24:15.322Z,99669.56
2023-04-18T12:25:21.568Z,99676.03
2023-04-18T12:26:24.334Z,99672.41
2023-04-18T12:27:27.083Z,99676.22
2023-04-18T12:28:28.705Z,99670.34
2023-04-18T12:29:30.306Z,99669.84
2023-04-18T12:30:36.848Z,99666.00
2023-04-18T12:31:43.066Z,99675.13
2023-04-18T12:32:44.634Z,99671.16
2023-04-18T12:33:46.352Z,99667.84
2023-04-18T12:34:48.077Z,99667.06
2023-04-18T12:35:50.078Z,99668.25
2023-04-18T12:36:51.729Z,99663.63
2023-04-18T12:37:55.511Z,99670.69
2023-04-18T12:38:57.343Z,99666.19
2023-04-18T12:39:59.238Z,99667.88
2023-04-18T12:41:00.812Z,99671.41
2023-04-18T12:42:02.354Z,99663.91
2023-04-18T12:43:04.073Z,99667.75
2023-04-18T12:44:05.833Z,99667.59
2023-04-18T12:45:10.029Z,99663.47
2023-04-18T12:46:11.625Z,99664.63
2023-04-18T12:47:13.259Z,99656.16
2023-04-18T12:48:14.964Z,99662.84
2023-04-18T12:49:16.557Z,99656.25
2023-04-18T12:50:27.255Z,99661.41
2023-04-18T12:51:28.986Z,99657.25
2023-04-18T12:55:28.688Z,99659.28
2023-04-18T12:56:30.303Z,99653.81
2023-04-18T12:57:32.185Z,99660.63
2023-04-18T13:07:40.918Z,99661.03
2023-04-18T13:08:42.521Z,99660.53
2023-04-18T13:09:44.993Z,99656.88
2023-04-18T13:10:46.788Z,99659.38
2023-04-18T13:14:13.504Z,99657.72
2023-04-18T13:15:15.261Z,99654.38
2023-04-18T13:16:16.948Z,99660.34
2023-04-18T13:17:18.614Z,99654.38
2023-04-18T13:18:20.168Z,99651.84
2023-04-18T13:19:21.778Z,99652.00
2023-04-18T13:20:23.374Z,99650.72
2023-04-18T13:21:24.928Z,99653.50
2023-04-18T13:22:26.628Z,99665.81
2023-04-18T13:23:28.352Z,99655.19
2023-04-18T13:24:30.010Z,99653.31
2023-04-18T13:25:31.652Z,99653.28
2023-04-18T13:26:33.226Z,99647.78
2023-04-18T13:27:34.847Z,99658.25
2023-04-18T13:28:36.460Z,99658.59
2023-04-18T13:29:42.233Z,99653.28
2023-04-18T13:30:43.861Z,99655.28
2023-04-18T13:31:45.641Z,99657.81
2023-04-18T13:41:11.518Z,99657.06
2023-04-18T13:42:16.172Z,99669.69
2023-04-18T13:43:18.080Z,99660.72
2023-04-18T13:44:20.092Z,99659.38
2023-04-18T13:45:21.681Z,99658.56
2023-04-18T13:46:23.378Z,99647.44
2023-04-18T13:47:24.977Z,99650.81
2023-04-18T13:48:26.660Z,99654.59
2023-04-18T13:49:28.266Z,99649.47
2023-04-18T13:50:29.936Z,99654.44
2023-04-18T13:51:31.523Z,99659.25
2023-04-18T13:52:33.523Z,99656.06
2023-04-18T13:53:35.366Z,99660.72
2023-04-18T13:54:37.047Z,99653.56
2023-04-18T13:55:38.780Z,99656.38
2023-04-18T13:56:40.638Z,99653.56
2023-04-18T13:57:42.194Z,99653.22
2023-04-18T13:58:44.086Z,99656.72
2023-04-18T13:59:45.747Z,99649.75
2023-04-18T14:00:47.349Z,99644.09
2023-04-18T14:01:49.235Z,99649.56
2023-04-18T14:02:51.150Z,99657.38
2023-04-18T14:03:53.014Z,99641.78
2023-04-18T14:04:55.034Z,99649.75
2023-04-18T14:05:56.678Z,99653.91
2023-04-18T14:06:58.277Z,99646.94
2023-04-18T14:07:59.878Z,99655.06
2023-04-18T14:09:01.483Z,99649.09
2023-04-18T14:10:03.608Z,99656.72
2023-04-18T14:11:05.307Z,99651.41
2023-04-18T14:12:07.076Z,99654.38
2023-04-18T14:13:08.667Z,99648.38
2023-04-18T14:14:10.204Z,99653.03
2023-04-18T14:15:14.636Z,99648.38
2023-04-18T14:16:16.490Z,99648.22
2023-04-18T14:17:18.099Z,99647.03
2023-04-18T14:18:19.643Z,99650.19
2023-04-18T14:19:21.231Z,99648.38
2023-04-18T14:20:22.781Z,99642.56
2023-04-18T14:21:24.369Z,99645.84
2023-04-18T14:22:26.121Z,99649.16
2023-04-18T14:23:27.783Z,99642.00
2023-04-18T14:24:29.423Z,99641.84
2023-04-18T14:25:30.994Z,99642.34
2023-04-18T14:26:32.590Z,99645.31
2023-04-18T14:27:34.174Z,99641.47
2023-04-18T14:28:35.764Z,99647.06
2023-04-18T14:29:37.335Z,99645.56
2023-04-18T14:30:39.930Z,99644.09
2023-04-18T14:31:41.564Z,99649.41
2023-04-18T14:32:43.254Z,99647.41
2023-04-18T14:33:44.838Z,99650.06
2023-04-18T14:34:46.706Z,99647.59
2023-04-18T14:35:48.279Z,99642.94
2023-04-18T14:36:50.099Z,99648.78
2023-04-18T14:37:51.670Z,99645.31
2023-04-18T14:38:53.568Z,99639.69
2023-04-18T14:39:55.356Z,99643.84
2023-04-18T14:40:58.248Z,99649.66
2023-04-18T14:42:00.157Z,99649.16
2023-04-18T14:43:02.006Z,99647.38
2023-04-18T14:44:03.804Z,99652.22
2023-04-18T14:45:06.083Z,99643.75
2023-04-18T14:46:16.834Z,99649.75